sensor_id;sensor_type;location;lat;lon;timestamp;P1;durP1;ratioP1;P2;durP2;ratioP2
58565;SDS011;47788;46.172;-1.158;2022-09-14T00:01:51;9.57;;;2.03;;
58565;SDS011;47788;46.172;-1.158;2022-09-14T00:04:17;14.68;;;2.08;;
58565;SDS011;47788;46.172;-1.158;2022-09-14T00:06:44;8.23;;;1.45;;
58565;SDS011;47788;46.172;-1.158;2022-09-14T00:09:21;12.13;;;2.55;;
58565;SDS011;47788;46.172;-1.158;2022-09-14T00:11:48;10.00;;;2.17;;
58565;SDS011;47788;46.172;-1.158;2022-09-14T00:14:15;10.40;;;2.25;;
58565;SDS011;47788;46.172;-1.158;2022-09-14T00:16:42;13.70;;;2.00;;
58565;SDS011;47788;46.172;-1.158;2022-09-14T00:19:18;7.00;;;1.80;;
58565;SDS011;47788;46.172;-1.158;2022-09-14T00:21:54;9.27;;;2.40;;
58565;SDS011;47788;46.172;-1.158;2022-09-14T00:24:21;12.52;;;2.05;;
58565;SDS011;47788;46.172;-1.158;2022-09-14T00:26:48;8.63;;;1.50;;
58565;SDS011;47788;46.172;-1.158;2022-09-14T00:29:14;8.50;;;1.48;;
58565;SDS011;47788;46.172;-1.158;2022-09-14T00:31:40;10.25;;;1.65;;
58565;SDS011;47788;46.172;-1.158;2022-09-14T00:34:06;8.32;;;1.75;;
58565;SDS011;47788;46.172;-1.158;2022-09-14T00:36:37;8.20;;;1.52;;
58565;SDS011;47788;46.172;-1.158;2022-09-14T00:39:08;15.43;;;1.77;;
58565;SDS011;47788;46.172;-1.158;2022-09-14T00:41:36;11.45;;;1.85;;
58565;SDS011;47788;46.172;-1.158;2022-09-14T00:46:37;9.07;;;2.00;;
58565;SDS011;47788;46.172;-1.158;2022-09-14T00:49:09;8.95;;;1.50;;
58565;SDS011;47788;46.172;-1.158;2022-09-14T00:52:06;10.32;;;1.77;;
58565;SDS011;47788;46.172;-1.158;2022-09-14T00:54:47;5.53;;;1.80;;
58565;SDS011;47788;46.172;-1.158;2022-09-14T00:57:16;11.77;;;1.67;;
58565;SDS011;47788;46.172;-1.158;2022-09-14T00:59:43;13.93;;;2.00;;
58565;SDS011;47788;46.172;-1.158;2022-09-14T01:02:12;12.35;;;2.00;;
58565;SDS011;47788;46.172;-1.158;2022-09-14T01:04:39;11.82;;;2.00;;
58565;SDS011;47788;46.172;-1.158;2022-09-14T01:16:02;9.35;;;2.22;;
58565;SDS011;47788;46.172;-1.158;2022-09-14T01:18:54;12.73;;;1.77;;
58565;SDS011;47788;46.172;-1.158;2022-09-14T01:21:30;11.90;;;2.00;;
58565;SDS011;47788;46.172;-1.158;2022-09-14T01:26:49;14.05;;;2.22;;
58565;SDS011;47788;46.172;-1.158;2022-09-14T01:29:43;13.18;;;2.45;;
58565;SDS011;47788;46.172;-1.158;2022-09-14T01:32:20;12.30;;;1.88;;
58565;SDS011;47788;46.172;-1.158;2022-09-14T01:35:06;11.02;;;1.92;;
58565;SDS011;47788;46.172;-1.158;2022-09-14T01:37:50;10.68;;;2.08;;
58565;SDS011;47788;46.172;-1.158;2022-09-14T01:43:10;8.85;;;1.73;;
58565;SDS011;47788;46.172;-1.158;2022-09-14T01:45:44;18.77;;;2.33;;
58565;SDS011;47788;46.172;-1.158;2022-09-14T01:48:14;15.32;;;2.50;;
58565;SDS011;47788;46.172;-1.158;2022-09-14T01:50:46;17.90;;;2.88;;
58565;SDS011;47788;46.172;-1.158;2022-09-14T01:53:26;12.65;;;2.03;;
58565;SDS011;47788;46.172;-1.158;2022-09-14T01:56:11;14.77;;;2.47;;
58565;SDS011;47788;46.172;-1.158;2022-09-14T01:58:45;14.45;;;2.35;;
58565;SDS011;47788;46.172;-1.158;2022-09-14T02:01:14;13.73;;;2.33;;
58565;SDS011;47788;46.172;-1.158;2022-09-14T02:03:47;18.75;;;3.00;;
58565;SDS011;47788;46.172;-1.158;2022-09-14T02:06:23;14.85;;;2.28;;
58565;SDS011;47788;46.172;-1.158;2022-09-14T02:08:59;16.77;;;2.90;;
58565;SDS011;47788;46.172;-1.158;2022-09-14T02:11:26;12.23;;;2.50;;
58565;SDS011;47788;46.172;-1.158;2022-09-14T02:13:51;12.30;;;2.50;;
58565;SDS011;47788;46.172;-1.158;2022-09-14T02:16:17;14.65;;;2.88;;
58565;SDS011;47788;46.172;-1.158;2022-09-14T02:18:45;12.48;;;2.28;;
58565;SDS011;47788;46.172;-1.158;2022-09-14T02:21:18;14.68;;;2.55;;
58565;SDS011;47788;46.172;-1.158;2022-09-14T02:23:47;16.63;;;3.10;;
58565;SDS011;47788;46.172;-1.158;2022-09-14T02:26:15;11.82;;;2.53;;
58565;SDS011;47788;46.172;-1.158;2022-09-14T02:28:43;12.85;;;2.95;;
58565;SDS011;47788;46.172;-1.158;2022-09-14T02:51:08;13.38;;;3.28;;
58565;SDS011;47788;46.172;-1.158;2022-09-14T02:53:42;12.85;;;2.22;;
58565;SDS011;47788;46.172;-1.158;2022-09-14T02:56:12;14.65;;;3.17;;
58565;SDS011;47788;46.172;-1.158;2022-09-14T02:58:43;13.10;;;2.88;;
58565;SDS011;47788;46.172;-1.158;2022-09-14T03:01:11;14.30;;;2.90;;
58565;SDS011;47788;46.172;-1.158;2022-09-14T03:03:40;20.08;;;3.38;;
58565;SDS011;47788;46.172;-1.158;2022-09-14T03:06:05;13.45;;;2.03;;
58565;SDS011;47788;46.172;-1.158;2022-09-14T03:08:31;15.80;;;2.75;;
58565;SDS011;47788;46.172;-1.158;2022-09-14T03:10:57;15.10;;;2.72;;
58565;SDS011;47788;46.172;-1.158;2022-09-14T03:13:23;14.63;;;2.28;;
58565;SDS011;47788;46.172;-1.158;2022-09-14T03:15:49;10.77;;;2.67;;
58565;SDS011;47788;46.172;-1.158;2022-09-14T03:18:15;16.20;;;2.33;;
58565;SDS011;47788;46.172;-1.158;2022-09-14T03:20:41;11.55;;;2.38;;
58565;SDS011;47788;46.172;-1.158;2022-09-14T03:23:07;15.40;;;2.40;;
58565;SDS011;47788;46.172;-1.158;2022-09-14T03:25:35;16.90;;;3.03;;
58565;SDS011;47788;46.172;-1.158;2022-09-14T03:28:03;16.13;;;3.33;;
58565;SDS011;47788;46.172;-1.158;2022-09-14T03:30:29;11.57;;;2.25;;
58565;SDS011;47788;46.172;-1.158;2022-09-14T03:32:56;20.25;;;3.25;;
58565;SDS011;47788;46.172;-1.158;2022-09-14T03:35:23;17.38;;;3.15;;
58565;SDS011;47788;46.172;-1.158;2022-09-14T03:37:49;9.73;;;2.08;;
58565;SDS011;47788;46.172;-1.158;2022-09-14T03:40:15;15.90;;;2.70;;
58565;SDS011;47788;46.172;-1.158;2022-09-14T03:42:42;13.30;;;2.22;;
58565;SDS011;47788;46.172;-1.158;2022-09-14T03:45:12;10.57;;;2.10;;
58565;SDS011;47788;46.172;-1.158;2022-09-14T03:47:39;12.40;;;2.50;;
58565;SDS011;47788;46.172;-1.158;2022-09-14T03:50:06;11.07;;;2.40;;
58565;SDS011;47788;46.172;-1.158;2022-09-14T03:52:33;11.70;;;2.13;;
58565;SDS011;47788;46.172;-1.158;2022-09-14T03:54:59;9.57;;;2.10;;
58565;SDS011;47788;46.172;-1.158;2022-09-14T03:57:25;10.30;;;2.15;;
58565;SDS011;47788;46.172;-1.158;2022-09-14T03:59:51;14.25;;;2.40;;
58565;SDS011;47788;46.172;-1.158;2022-09-14T04:02:16;7.63;;;2.85;;
58565;SDS011;47788;46.172;-1.158;2022-09-14T04:04:42;12.25;;;2.58;;
58565;SDS011;47788;46.172;-1.158;2022-09-14T04:07:07;9.32;;;2.45;;
58565;SDS011;47788;46.172;-1.158;2022-09-14T04:09:33;9.75;;;2.20;;
58565;SDS011;47788;46.172;-1.158;2022-09-14T04:11:59;11.88;;;2.10;;
58565;SDS011;47788;46.172;-1.158;2022-09-14T04:14:25;11.20;;;1.85;;
58565;SDS011;47788;46.172;-1.158;2022-09-14T04:16:50;8.98;;;2.17;;
58565;SDS011;47788;46.172;-1.158;2022-09-14T04:19:16;5.68;;;2.10;;
58565;SDS011;47788;46.172;-1.158;2022-09-14T04:21:42;9.30;;;2.60;;
58565;SDS011;47788;46.172;-1.158;2022-09-14T04:24:08;12.40;;;2.42;;
58565;SDS011;47788;46.172;-1.158;2022-09-14T04:26:37;13.20;;;2.72;;
58565;SDS011;47788;46.172;-1.158;2022-09-14T04:29:03;10.50;;;2.30;;
58565;SDS011;47788;46.172;-1.158;2022-09-14T04:31:30;9.48;;;2.20;;
58565;SDS011;47788;46.172;-1.158;2022-09-14T04:33:56;8.93;;;1.92;;
58565;SDS011;47788;46.172;-1.158;2022-09-14T04:36:23;8.23;;;2.30;;
58565;SDS011;47788;46.172;-1.158;2022-09-14T04:38:55;6.32;;;2.03;;
58565;SDS011;47788;46.172;-1.158;2022-09-14T04:41:23;10.68;;;2.70;;
58565;SDS011;47788;46.172;-1.158;2022-09-14T04:43:49;14.65;;;2.45;;
58565;SDS011;47788;46.172;-1.158;2022-09-14T04:46:19;12.32;;;2.70;;
58565;SDS011;47788;46.172;-1.158;2022-09-14T04:48:47;11.23;;;2.13;;
58565;SDS011;47788;46.172;-1.158;2022-09-14T04:51:17;13.13;;;2.88;;
58565;SDS011;47788;46.172;-1.158;2022-09-14T04:53:45;9.70;;;2.58;;
58565;SDS011;47788;46.172;-1.158;2022-09-14T04:56:13;10.10;;;2.45;;
58565;SDS011;47788;46.172;-1.158;2022-09-14T04:58:41;9.93;;;2.47;;
58565;SDS011;47788;46.172;-1.158;2022-09-14T05:01:10;9.35;;;2.47;;
58565;SDS011;47788;46.172;-1.158;2022-09-14T05:03:37;11.60;;;2.65;;
58565;SDS011;47788;46.172;-1.158;2022-09-14T05:06:04;9.63;;;2.53;;
58565;SDS011;47788;46.172;-1.158;2022-09-14T05:08:32;10.07;;;2.60;;
58565;SDS011;47788;46.172;-1.158;2022-09-14T05:10:59;9.88;;;2.67;;
58565;SDS011;47788;46.172;-1.158;2022-09-14T05:13:24;11.90;;;2.92;;
58565;SDS011;47788;46.172;-1.158;2022-09-14T05:15:50;8.07;;;2.53;;
58565;SDS011;47788;46.172;-1.158;2022-09-14T05:18:17;15.02;;;2.92;;
58565;SDS011;47788;46.172;-1.158;2022-09-14T05:20:43;12.68;;;3.47;;
58565;SDS011;47788;46.172;-1.158;2022-09-14T05:23:09;8.68;;;2.60;;
58565;SDS011;47788;46.172;-1.158;2022-09-14T05:25:34;7.72;;;2.55;;
58565;SDS011;47788;46.172;-1.158;2022-09-14T05:28:00;13.48;;;3.20;;
58565;SDS011;47788;46.172;-1.158;2022-09-14T05:30:26;11.90;;;2.50;;
58565;SDS011;47788;46.172;-1.158;2022-09-14T05:32:51;11.23;;;3.08;;
58565;SDS011;47788;46.172;-1.158;2022-09-14T05:35:17;10.43;;;2.92;;
58565;SDS011;47788;46.172;-1.158;2022-09-14T05:37:43;12.32;;;3.30;;
58565;SDS011;47788;46.172;-1.158;2022-09-14T05:40:09;10.88;;;3.45;;
58565;SDS011;47788;46.172;-1.158;2022-09-14T05:42:35;11.43;;;3.22;;
58565;SDS011;47788;46.172;-1.158;2022-09-14T05:45:00;7.93;;;2.30;;
58565;SDS011;47788;46.172;-1.158;2022-09-14T05:47:29;13.27;;;2.60;;
58565;SDS011;47788;46.172;-1.158;2022-09-14T05:49:55;11.50;;;3.20;;
58565;SDS011;47788;46.172;-1.158;2022-09-14T05:52:22;12.40;;;3.38;;
58565;SDS011;47788;46.172;-1.158;2022-09-14T05:54:48;9.93;;;3.50;;
58565;SDS011;47788;46.172;-1.158;2022-09-14T05:57:14;10.77;;;2.85;;
58565;SDS011;47788;46.172;-1.158;2022-09-14T05:59:39;9.85;;;2.90;;
58565;SDS011;47788;46.172;-1.158;2022-09-14T06:02:05;11.82;;;3.28;;
58565;SDS011;47788;46.172;-1.158;2022-09-14T06:04:33;12.15;;;3.55;;
58565;SDS011;47788;46.172;-1.158;2022-09-14T06:07:00;10.82;;;3.58;;
58565;SDS011;47788;46.172;-1.158;2022-09-14T06:09:25;13.20;;;3.72;;
58565;SDS011;47788;46.172;-1.158;2022-09-14T06:11:51;10.95;;;3.75;;
58565;SDS011;47788;46.172;-1.158;2022-09-14T06:14:17;15.50;;;4.65;;
58565;SDS011;47788;46.172;-1.158;2022-09-14T06:16:44;18.67;;;4.45;;
58565;SDS011;47788;46.172;-1.158;2022-09-14T06:19:10;14.65;;;4.10;;
58565;SDS011;47788;46.172;-1.158;2022-09-14T06:21:36;12.07;;;3.88;;
58565;SDS011;47788;46.172;-1.158;2022-09-14T06:24:02;11.25;;;4.63;;
58565;SDS011;47788;46.172;-1.158;2022-09-14T06:26:28;12.00;;;4.53;;
58565;SDS011;47788;46.172;-1.158;2022-09-14T06:28:53;13.38;;;4.10;;
58565;SDS011;47788;46.172;-1.158;2022-09-14T06:31:19;13.32;;;4.05;;
58565;SDS011;47788;46.172;-1.158;2022-09-14T06:33:47;12.02;;;4.28;;
58565;SDS011;47788;46.172;-1.158;2022-09-14T06:36:15;8.98;;;4.35;;
58565;SDS011;47788;46.172;-1.158;2022-09-14T06:38:43;13.65;;;4.32;;
58565;SDS011;47788;46.172;-1.158;2022-09-14T06:41:11;10.32;;;4.55;;
58565;SDS011;47788;46.172;-1.158;2022-09-14T06:43:39;14.68;;;4.57;;
58565;SDS011;47788;46.172;-1.158;2022-09-14T06:46:07;12.27;;;4.50;;
58565;SDS011;47788;46.172;-1.158;2022-09-14T06:48:34;9.57;;;3.95;;
58565;SDS011;47788;46.172;-1.158;2022-09-14T06:53:43;13.80;;;4.68;;
58565;SDS011;47788;46.172;-1.158;2022-09-14T06:56:10;15.35;;;5.95;;
58565;SDS011;47788;46.172;-1.158;2022-09-14T06:58:36;12.98;;;5.13;;
58565;SDS011;47788;46.172;-1.158;2022-09-14T07:01:02;12.23;;;5.13;;
58565;SDS011;47788;46.172;-1.158;2022-09-14T07:03:29;15.23;;;5.40;;
58565;SDS011;47788;46.172;-1.158;2022-09-14T07:06:09;18.25;;;7.60;;
58565;SDS011;47788;46.172;-1.158;2022-09-14T07:08:37;21.08;;;7.70;;
58565;SDS011;47788;46.172;-1.158;2022-09-14T07:11:06;20.75;;;7.65;;
58565;SDS011;47788;46.172;-1.158;2022-09-14T07:13:33;16.98;;;6.85;;
58565;SDS011;47788;46.172;-1.158;2022-09-14T07:15:59;14.13;;;6.35;;
58565;SDS011;47788;46.172;-1.158;2022-09-14T07:18:25;21.15;;;6.95;;
58565;SDS011;47788;46.172;-1.158;2022-09-14T07:20:52;15.45;;;7.00;;
58565;SDS011;47788;46.172;-1.158;2022-09-14T07:23:19;17.13;;;7.65;;
58565;SDS011;47788;46.172;-1.158;2022-09-14T07:25:44;20.13;;;8.82;;
58565;SDS011;47788;46.172;-1.158;2022-09-14T07:28:10;23.52;;;9.13;;
58565;SDS011;47788;46.172;-1.158;2022-09-14T07:30:36;20.58;;;8.50;;
58565;SDS011;47788;46.172;-1.158;2022-09-14T07:33:03;24.17;;;8.82;;
58565;SDS011;47788;46.172;-1.158;2022-09-14T07:35:29;22.80;;;9.60;;
58565;SDS011;47788;46.172;-1.158;2022-09-14T07:37:55;19.52;;;9.25;;
58565;SDS011;47788;46.172;-1.158;2022-09-14T07:40:21;21.15;;;9.57;;
58565;SDS011;47788;46.172;-1.158;2022-09-14T07:42:50;22.75;;;10.85;;
58565;SDS011;47788;46.172;-1.158;2022-09-14T07:45:17;31.13;;;11.73;;
58565;SDS011;47788;46.172;-1.158;2022-09-14T07:47:42;24.33;;;11.52;;
58565;SDS011;47788;46.172;-1.158;2022-09-14T07:50:08;26.08;;;11.23;;
58565;SDS011;47788;46.172;-1.158;2022-09-14T07:52:34;26.05;;;11.43;;
58565;SDS011;47788;46.172;-1.158;2022-09-14T07:55:00;26.08;;;10.18;;
58565;SDS011;47788;46.172;-1.158;2022-09-14T07:57:26;21.80;;;10.35;;
58565;SDS011;47788;46.172;-1.158;2022-09-14T07:59:51;24.48;;;11.40;;
58565;SDS011;47788;46.172;-1.158;2022-09-14T08:02:17;23.88;;;11.88;;
58565;SDS011;47788;46.172;-1.158;2022-09-14T08:04:43;24.20;;;11.45;;
58565;SDS011;47788;46.172;-1.158;2022-09-14T08:07:09;31.10;;;15.15;;
58565;SDS011;47788;46.172;-1.158;2022-09-14T08:09:34;37.33;;;16.88;;
58565;SDS011;47788;46.172;-1.158;2022-09-14T08:12:03;34.45;;;16.80;;
58565;SDS011;47788;46.172;-1.158;2022-09-14T08:14:29;40.80;;;19.73;;
58565;SDS011;47788;46.172;-1.158;2022-09-14T08:16:55;35.72;;;19.27;;
58565;SDS011;47788;46.172;-1.158;2022-09-14T08:19:21;48.38;;;21.10;;
58565;SDS011;47788;46.172;-1.158;2022-09-14T08:21:47;36.50;;;20.25;;
58565;SDS011;47788;46.172;-1.158;2022-09-14T08:24:17;42.83;;;21.42;;
58565;SDS011;47788;46.172;-1.158;2022-09-14T08:26:44;37.42;;;21.05;;
58565;SDS011;47788;46.172;-1.158;2022-09-14T08:29:11;49.83;;;24.23;;
58565;SDS011;47788;46.172;-1.158;2022-09-14T08:31:37;46.78;;;23.50;;
58565;SDS011;47788;46.172;-1.158;2022-09-14T08:34:03;56.38;;;24.92;;
58565;SDS011;47788;46.172;-1.158;2022-09-14T08:36:31;52.22;;;28.40;;
58565;SDS011;47788;46.172;-1.158;2022-09-14T08:38:59;52.42;;;27.10;;
58565;SDS011;47788;46.172;-1.158;2022-09-14T08:46:46;59.28;;;31.02;;
58565;SDS011;47788;46.172;-1.158;2022-09-14T08:50:02;57.30;;;29.92;;
58565;SDS011;47788;46.172;-1.158;2022-09-14T08:52:10;53.90;;;29.45;;
58565;SDS011;47788;46.172;-1.158;2022-09-14T08:54:44;52.85;;;29.83;;
58565;SDS011;47788;46.172;-1.158;2022-09-14T08:57:18;57.40;;;29.80;;
58565;SDS011;47788;46.172;-1.158;2022-09-14T09:00:04;54.70;;;28.00;;
58565;SDS011;47788;46.172;-1.158;2022-09-14T09:05:32;53.08;;;27.73;;
58565;SDS011;47788;46.172;-1.158;2022-09-14T09:10:53;53.72;;;27.00;;
58565;SDS011;47788;46.172;-1.158;2022-09-14T09:13:20;47.83;;;25.60;;
58565;SDS011;47788;46.172;-1.158;2022-09-14T09:15:52;49.40;;;25.60;;
58565;SDS011;47788;46.172;-1.158;2022-09-14T09:21:05;52.83;;;26.40;;
58565;SDS011;47788;46.172;-1.158;2022-09-14T09:23:36;49.47;;;26.77;;
58565;SDS011;47788;46.172;-1.158;2022-09-14T09:26:05;48.28;;;24.42;;
58565;SDS011;47788;46.172;-1.158;2022-09-14T09:28:55;47.05;;;23.95;;
58565;SDS011;47788;46.172;-1.158;2022-09-14T09:31:26;47.72;;;24.27;;
58565;SDS011;47788;46.172;-1.158;2022-09-14T09:33:59;49.90;;;22.42;;
58565;SDS011;47788;46.172;-1.158;2022-09-14T09:36:26;45.00;;;20.85;;
58565;SDS011;47788;46.172;-1.158;2022-09-14T09:39:01;43.85;;;21.05;;
58565;SDS011;47788;46.172;-1.158;2022-09-14T09:41:28;38.53;;;18.40;;
58565;SDS011;47788;46.172;-1.158;2022-09-14T09:44:07;32.35;;;16.52;;
58565;SDS011;47788;46.172;-1.158;2022-09-14T09:46:36;36.92;;;16.95;;
58565;SDS011;47788;46.172;-1.158;2022-09-14T09:49:03;32.63;;;15.38;;
58565;SDS011;47788;46.172;-1.158;2022-09-14T09:51:44;31.80;;;14.52;;
58565;SDS011;47788;46.172;-1.158;2022-09-14T09:56:39;37.95;;;15.38;;
58565;SDS011;47788;46.172;-1.158;2022-09-14T09:59:41;27.88;;;12.07;;
58565;SDS011;47788;46.172;-1.158;2022-09-14T10:05:01;27.13;;;10.93;;
58565;SDS011;47788;46.172;-1.158;2022-09-14T10:07:28;23.02;;;10.13;;
58565;SDS011;47788;46.172;-1.158;2022-09-14T10:10:05;20.95;;;8.35;;
58565;SDS011;47788;46.172;-1.158;2022-09-14T10:12:33;18.60;;;7.63;;
58565;SDS011;47788;46.172;-1.158;2022-09-14T10:17:36;19.80;;;6.68;;
58565;SDS011;47788;46.172;-1.158;2022-09-14T10:20:01;13.80;;;5.63;;
58565;SDS011;47788;46.172;-1.158;2022-09-14T10:22:29;15.63;;;4.95;;
58565;SDS011;47788;46.172;-1.158;2022-09-14T10:24:57;19.27;;;5.25;;
58565;SDS011;47788;46.172;-1.158;2022-09-14T10:27:32;16.27;;;5.05;;
58565;SDS011;47788;46.172;-1.158;2022-09-14T10:30:04;12.63;;;4.00;;
58565;SDS011;47788;46.172;-1.158;2022-09-14T10:32:31;14.35;;;4.22;;
58565;SDS011;47788;46.172;-1.158;2022-09-14T10:34:58;16.10;;;4.53;;
58565;SDS011;47788;46.172;-1.158;2022-09-14T10:40:17;15.15;;;3.83;;
58565;SDS011;47788;46.172;-1.158;2022-09-14T10:53:21;12.20;;;2.85;;
58565;SDS011;47788;46.172;-1.158;2022-09-14T11:20:12;9.68;;;2.28;;
58565;SDS011;47788;46.172;-1.158;2022-09-14T11:23:06;11.75;;;1.95;;
58565;SDS011;47788;46.172;-1.158;2022-09-14T11:26:13;6.45;;;1.45;;
58565;SDS011;47788;46.172;-1.158;2022-09-14T11:28:45;23.35;;;3.50;;
58565;SDS011;47788;46.172;-1.158;2022-09-14T11:33:58;7.28;;;1.48;;
58565;SDS011;47788;46.172;-1.158;2022-09-14T11:36:27;9.40;;;1.73;;
58565;SDS011;47788;46.172;-1.158;2022-09-14T11:44:02;10.23;;;1.65;;
58565;SDS011;47788;46.172;-1.158;2022-09-14T11:46:44;12.25;;;2.22;;
58565;SDS011;47788;46.172;-1.158;2022-09-14T11:49:39;7.35;;;1.75;;
58565;SDS011;47788;46.172;-1.158;2022-09-14T11:52:29;6.20;;;1.80;;
58565;SDS011;47788;46.172;-1.158;2022-09-14T11:54:56;9.38;;;1.75;;
58565;SDS011;47788;46.172;-1.158;2022-09-14T11:57:24;7.95;;;1.67;;
58565;SDS011;47788;46.172;-1.158;2022-09-14T11:59:55;8.80;;;2.22;;
58565;SDS011;47788;46.172;-1.158;2022-09-14T12:05:25;12.70;;;1.83;;
58565;SDS011;47788;46.172;-1.158;2022-09-14T12:15:33;6.55;;;1.70;;
58565;SDS011;47788;46.172;-1.158;2022-09-14T12:20:33;5.82;;;1.20;;
58565;SDS011;47788;46.172;-1.158;2022-09-14T12:23:20;6.30;;;1.35;;
58565;SDS011;47788;46.172;-1.158;2022-09-14T12:26:13;9.60;;;2.25;;
58565;SDS011;47788;46.172;-1.158;2022-09-14T12:28:47;9.93;;;1.65;;
58565;SDS011;47788;46.172;-1.158;2022-09-14T12:32:02;8.10;;;1.63;;
58565;SDS011;47788;46.172;-1.158;2022-09-14T12:34:48;10.65;;;1.98;;
58565;SDS011;47788;46.172;-1.158;2022-09-14T12:42:52;5.85;;;1.23;;
58565;SDS011;47788;46.172;-1.158;2022-09-14T12:51:07;6.35;;;1.50;;
58565;SDS011;47788;46.172;-1.158;2022-09-14T12:53:37;12.93;;;1.70;;
58565;SDS011;47788;46.172;-1.158;2022-09-14T12:56:05;8.57;;;1.63;;
58565;SDS011;47788;46.172;-1.158;2022-09-14T12:58:46;11.02;;;1.70;;
58565;SDS011;47788;46.172;-1.158;2022-09-14T13:04:01;10.27;;;1.35;;
58565;SDS011;47788;46.172;-1.158;2022-09-14T13:06:32;10.80;;;1.52;;
58565;SDS011;47788;46.172;-1.158;2022-09-14T13:12:12;12.75;;;2.35;;
58565;SDS011;47788;46.172;-1.158;2022-09-14T13:14:48;13.88;;;1.92;;
58565;SDS011;47788;46.172;-1.158;2022-09-14T13:17:17;9.25;;;1.65;;
58565;SDS011;47788;46.172;-1.158;2022-09-14T13:19:52;12.48;;;2.53;;
58565;SDS011;47788;46.172;-1.158;2022-09-14T13:22:21;14.20;;;2.38;;
58565;SDS011;47788;46.172;-1.158;2022-09-14T13:24:49;11.60;;;1.88;;
58565;SDS011;47788;46.172;-1.158;2022-09-14T13:30:00;16.02;;;2.38;;
58565;SDS011;47788;46.172;-1.158;2022-09-14T13:32:29;10.10;;;2.13;;
58565;SDS011;47788;46.172;-1.158;2022-09-14T13:34:58;11.82;;;2.40;;
58565;SDS011;47788;46.172;-1.158;2022-09-14T13:37:25;14.20;;;1.80;;
58565;SDS011;47788;46.172;-1.158;2022-09-14T13:39:51;11.70;;;2.03;;
58565;SDS011;47788;46.172;-1.158;2022-09-14T13:42:19;15.13;;;2.15;;
58565;SDS011;47788;46.172;-1.158;2022-09-14T13:44:46;12.93;;;2.15;;
58565;SDS011;47788;46.172;-1.158;2022-09-14T13:47:31;15.25;;;2.33;;
58565;SDS011;47788;46.172;-1.158;2022-09-14T13:49:58;10.88;;;2.13;;
58565;SDS011;47788;46.172;-1.158;2022-09-14T13:55:07;21.55;;;2.25;;
58565;SDS011;47788;46.172;-1.158;2022-09-14T14:03:41;21.05;;;3.08;;
58565;SDS011;47788;46.172;-1.158;2022-09-14T14:06:16;14.77;;;3.63;;
58565;SDS011;47788;46.172;-1.158;2022-09-14T14:08:53;16.02;;;2.70;;
58565;SDS011;47788;46.172;-1.158;2022-09-14T14:14:18;14.77;;;2.80;;
58565;SDS011;47788;46.172;-1.158;2022-09-14T14:19:37;13.50;;;2.33;;
58565;SDS011;47788;46.172;-1.158;2022-09-14T14:24:42;9.15;;;2.35;;
58565;SDS011;47788;46.172;-1.158;2022-09-14T14:29:52;9.30;;;2.05;;
58565;SDS011;47788;46.172;-1.158;2022-09-14T14:32:19;10.02;;;2.28;;
58565;SDS011;47788;46.172;-1.158;2022-09-14T14:34:44;8.05;;;2.17;;
58565;SDS011;47788;46.172;-1.158;2022-09-14T14:37:10;9.13;;;2.17;;
58565;SDS011;47788;46.172;-1.158;2022-09-14T14:39:36;10.57;;;2.00;;
58565;SDS011;47788;46.172;-1.158;2022-09-14T14:42:03;4.88;;;1.48;;
58565;SDS011;47788;46.172;-1.158;2022-09-14T14:44:30;8.15;;;1.80;;
58565;SDS011;47788;46.172;-1.158;2022-09-14T14:46:56;4.60;;;1.02;;
58565;SDS011;47788;46.172;-1.158;2022-09-14T14:49:22;5.07;;;1.30;;
58565;SDS011;47788;46.172;-1.158;2022-09-14T14:51:48;6.38;;;1.55;;
58565;SDS011;47788;46.172;-1.158;2022-09-14T14:54:14;6.20;;;1.05;;
58565;SDS011;47788;46.172;-1.158;2022-09-14T14:56:42;5.15;;;1.30;;
58565;SDS011;47788;46.172;-1.158;2022-09-14T15:01:44;4.80;;;1.50;;
58565;SDS011;47788;46.172;-1.158;2022-09-14T15:04:10;5.93;;;1.85;;
58565;SDS011;47788;46.172;-1.158;2022-09-14T15:06:36;6.03;;;1.33;;
58565;SDS011;47788;46.172;-1.158;2022-09-14T15:09:02;3.28;;;1.20;;
58565;SDS011;47788;46.172;-1.158;2022-09-14T15:11:33;2.17;;;0.98;;
58565;SDS011;47788;46.172;-1.158;2022-09-14T15:14:02;7.90;;;1.70;;
58565;SDS011;47788;46.172;-1.158;2022-09-14T15:16:28;6.72;;;1.73;;
58565;SDS011;47788;46.172;-1.158;2022-09-14T15:18:54;5.88;;;1.70;;
58565;SDS011;47788;46.172;-1.158;2022-09-14T15:21:20;3.38;;;1.23;;
58565;SDS011;47788;46.172;-1.158;2022-09-14T15:23:47;4.07;;;1.10;;
58565;SDS011;47788;46.172;-1.158;2022-09-14T15:26:12;4.13;;;1.25;;
58565;SDS011;47788;46.172;-1.158;2022-09-14T15:28:38;4.03;;;1.27;;
58565;SDS011;47788;46.172;-1.158;2022-09-14T15:31:04;5.07;;;1.55;;
58565;SDS011;47788;46.172;-1.158;2022-09-14T15:33:30;5.30;;;1.70;;
58565;SDS011;47788;46.172;-1.158;2022-09-14T15:35:56;5.22;;;1.92;;
58565;SDS011;47788;46.172;-1.158;2022-09-14T15:38:22;4.07;;;1.80;;
58565;SDS011;47788;46.172;-1.158;2022-09-14T15:40:48;5.65;;;1.30;;
58565;SDS011;47788;46.172;-1.158;2022-09-14T15:43:14;3.03;;;1.10;;
58565;SDS011;47788;46.172;-1.158;2022-09-14T15:45:40;3.92;;;1.30;;
58565;SDS011;47788;46.172;-1.158;2022-09-14T15:48:09;5.00;;;1.30;;
58565;SDS011;47788;46.172;-1.158;2022-09-14T15:50:40;4.88;;;1.65;;
58565;SDS011;47788;46.172;-1.158;2022-09-14T15:53:07;4.38;;;1.73;;
58565;SDS011;47788;46.172;-1.158;2022-09-14T15:55:36;5.43;;;1.70;;
58565;SDS011;47788;46.172;-1.158;2022-09-14T15:58:06;4.57;;;1.58;;
58565;SDS011;47788;46.172;-1.158;2022-09-14T16:00:33;4.47;;;1.38;;
58565;SDS011;47788;46.172;-1.158;2022-09-14T16:03:00;5.45;;;1.50;;
58565;SDS011;47788;46.172;-1.158;2022-09-14T16:05:25;5.30;;;1.55;;
58565;SDS011;47788;46.172;-1.158;2022-09-14T16:07:52;3.47;;;1.48;;
58565;SDS011;47788;46.172;-1.158;2022-09-14T16:10:18;4.93;;;1.63;;
58565;SDS011;47788;46.172;-1.158;2022-09-14T16:12:44;5.63;;;1.60;;
58565;SDS011;47788;46.172;-1.158;2022-09-14T16:15:10;5.68;;;1.95;;
58565;SDS011;47788;46.172;-1.158;2022-09-14T16:17:36;5.47;;;1.80;;
58565;SDS011;47788;46.172;-1.158;2022-09-14T16:20:02;6.32;;;1.80;;
58565;SDS011;47788;46.172;-1.158;2022-09-14T16:22:30;4.20;;;1.50;;
58565;SDS011;47788;46.172;-1.158;2022-09-14T16:24:56;5.55;;;1.27;;
58565;SDS011;47788;46.172;-1.158;2022-09-14T16:27:22;3.92;;;1.30;;
58565;SDS011;47788;46.172;-1.158;2022-09-14T16:29:47;3.97;;;1.00;;
58565;SDS011;47788;46.172;-1.158;2022-09-14T16:32:13;2.90;;;0.90;;
58565;SDS011;47788;46.172;-1.158;2022-09-14T16:34:39;5.60;;;1.10;;
58565;SDS011;47788;46.172;-1.158;2022-09-14T16:37:04;3.20;;;1.40;;
58565;SDS011;47788;46.172;-1.158;2022-09-14T16:39:30;3.42;;;1.40;;
58565;SDS011;47788;46.172;-1.158;2022-09-14T16:41:58;5.07;;;1.70;;
58565;SDS011;47788;46.172;-1.158;2022-09-14T16:44:25;5.82;;;1.92;;
58565;SDS011;47788;46.172;-1.158;2022-09-14T16:46:53;5.90;;;2.10;;
58565;SDS011;47788;46.172;-1.158;2022-09-14T16:49:19;7.13;;;2.00;;
58565;SDS011;47788;46.172;-1.158;2022-09-14T16:51:45;5.00;;;1.70;;
58565;SDS011;47788;46.172;-1.158;2022-09-14T16:54:15;6.35;;;1.60;;
58565;SDS011;47788;46.172;-1.158;2022-09-14T16:56:42;8.25;;;1.92;;
58565;SDS011;47788;46.172;-1.158;2022-09-14T16:59:09;8.70;;;2.20;;
58565;SDS011;47788;46.172;-1.158;2022-09-14T17:01:37;9.35;;;2.38;;
58565;SDS011;47788;46.172;-1.158;2022-09-14T17:04:06;9.88;;;1.83;;
58565;SDS011;47788;46.172;-1.158;2022-09-14T17:06:38;9.68;;;2.35;;
58565;SDS011;47788;46.172;-1.158;2022-09-14T17:09:07;8.32;;;1.83;;
58565;SDS011;47788;46.172;-1.158;2022-09-14T17:11:36;7.13;;;1.80;;
58565;SDS011;47788;46.172;-1.158;2022-09-14T17:14:02;7.40;;;1.98;;
58565;SDS011;47788;46.172;-1.158;2022-09-14T17:16:28;5.97;;;1.80;;
58565;SDS011;47788;46.172;-1.158;2022-09-14T17:18:58;9.55;;;1.80;;